Maragheh, Iran
Current Conditions -  °F | °C
As of 10:00 PM on Monday 20 Oct 2014 (Local Time) from OITM Reporting Station
Moderate Rain Moderate Rain  
Wind Chill: 35°   Ceiling: 6000
Heat Index: 43°   Visibility: 1.5mi
Dew Point: 41°   Wind: 18mph
Humidity: 93%   Direction: 60°ENE
Pressure: 30.06"   Gusts: NA
Location:  37.38°N, 46.27°E
Report Text: OITM 201800Z 06016KT 2500 RA BR FEW015 SCT035CB OVC060 06/05 Q1018
Loading
Personal Weather Stations






























Interactive Weather Map
Tropical Storm Tracking
New forecast layout! Learn more

10-Day Weather Forecast

Advertisements
Track Severe Weather on mobile